createdAt,value
2022-08-26T00:02:08.206Z,72.59
2022-08-26T00:04:37.057Z,72.89
2022-08-26T00:07:05.741Z,73.63
2022-08-26T00:09:37.255Z,73.93
2022-08-26T00:12:07.708Z,73.71
2022-08-26T00:14:37.012Z,73.49
2022-08-26T00:17:05.228Z,73.37
2022-08-26T00:19:38.384Z,73.42
2022-08-26T00:22:06.481Z,73.21
2022-08-26T00:24:34.478Z,73.09
2022-08-26T00:27:03.744Z,73.12
2022-08-26T00:29:35.511Z,73.42
2022-08-26T00:32:06.806Z,73.80
2022-08-26T00:34:35.632Z,73.55
2022-08-26T00:37:09.066Z,73.47
2022-08-26T00:39:37.777Z,73.73
2022-08-26T00:42:06.062Z,74.23
2022-08-26T00:44:34.021Z,74.24
2022-08-26T00:47:06.437Z,74.16
2022-08-26T00:49:38.858Z,74.15
2022-08-26T00:52:11.903Z,74.13
2022-08-26T00:54:46.659Z,74.06
2022-08-26T00:57:17.327Z,74.41
2022-08-26T00:59:46.858Z,74.56
2022-08-26T01:02:20.787Z,74.92
2022-08-26T01:04:54.427Z,74.87
2022-08-26T01:07:27.588Z,75.35
2022-08-26T01:09:59.912Z,75.55
2022-08-26T01:12:29.686Z,75.25
2022-08-26T01:14:57.660Z,75.09
2022-08-26T01:17:25.920Z,74.99
2022-08-26T01:19:58.008Z,74.75
2022-08-26T01:22:34.248Z,74.51
2022-08-26T01:25:04.443Z,74.57
2022-08-26T01:27:33.725Z,74.11
2022-08-26T01:30:03.400Z,74.26
2022-08-26T01:32:34.220Z,73.97
2022-08-26T01:35:03.095Z,73.84
2022-08-26T01:37:39.055Z,73.82
2022-08-26T01:40:15.218Z,74.09
2022-08-26T01:42:46.853Z,74.18
2022-08-26T01:45:18.327Z,73.96
2022-08-26T01:47:50.091Z,74.00
2022-08-26T01:50:30.293Z,74.16
2022-08-26T01:53:01.532Z,74.00
2022-08-26T01:55:32.902Z,74.09
2022-08-26T01:58:06.150Z,74.06
2022-08-26T02:00:35.645Z,74.77
2022-08-26T02:03:22.242Z,75.05
2022-08-26T02:05:53.842Z,75.63
2022-08-26T02:08:27.705Z,75.44
2022-08-26T02:10:57.116Z,75.26
2022-08-26T02:13:30.082Z,75.28
2022-08-26T02:16:00.691Z,75.33
2022-08-26T02:18:30.097Z,75.27
2022-08-26T02:20:58.269Z,75.21
2022-08-26T02:23:27.712Z,75.26
2022-08-26T02:26:03.681Z,74.96
2022-08-26T02:28:37.205Z,75.21
2022-08-26T02:31:05.389Z,75.17
2022-08-26T02:33:36.350Z,75.56
2022-08-26T02:36:05.560Z,76.01
2022-08-26T02:38:35.882Z,76.23
2022-08-26T02:41:06.782Z,76.50
2022-08-26T02:43:36.801Z,76.76
2022-08-26T02:46:05.890Z,76.74
2022-08-26T02:48:33.852Z,76.83
2022-08-26T02:51:01.953Z,76.64
2022-08-26T02:53:31.779Z,76.41
2022-08-26T02:56:00.809Z,76.62
2022-08-26T02:58:30.692Z,76.38
2022-08-26T03:00:58.776Z,76.34
2022-08-26T03:03:27.108Z,76.20
2022-08-26T03:05:55.927Z,76.36
2022-08-26T03:08:24.005Z,76.20
2022-08-26T03:10:53.248Z,76.00
2022-08-26T03:13:21.128Z,75.83
2022-08-26T03:15:50.482Z,75.62
2022-08-26T03:18:18.437Z,75.51
2022-08-26T03:20:48.524Z,75.39
2022-08-26T03:23:16.695Z,74.83
2022-08-26T03:25:50.892Z,74.68
2022-08-26T03:28:19.404Z,74.50
2022-08-26T03:30:47.976Z,74.50
2022-08-26T03:33:19.049Z,74.04
2022-08-26T03:35:50.738Z,74.53
2022-08-26T03:38:19.821Z,74.66
2022-08-26T03:40:47.944Z,74.57
2022-08-26T03:43:17.181Z,74.38
2022-08-26T03:45:46.019Z,74.50
2022-08-26T03:48:15.153Z,74.62
2022-08-26T03:50:44.611Z,74.34
2022-08-26T03:53:13.094Z,74.33
2022-08-26T03:55:42.230Z,74.20
2022-08-26T03:58:11.261Z,74.33
2022-08-26T04:00:39.373Z,74.35
2022-08-26T04:03:09.743Z,74.29
2022-08-26T04:05:39.089Z,74.13
2022-08-26T04:08:08.396Z,74.47
2022-08-26T04:10:38.952Z,74.46
2022-08-26T04:13:07.199Z,74.36
2022-08-26T04:15:35.419Z,74.36
2022-08-26T04:18:03.348Z,74.23
2022-08-26T04:20:31.906Z,74.53
2022-08-26T04:22:59.976Z,74.81
2022-08-26T04:25:29.691Z,74.47
2022-08-26T04:27:57.658Z,74.45
2022-08-26T04:30:25.626Z,74.50
2022-08-26T04:32:53.656Z,74.44
2022-08-26T04:35:25.696Z,74.61
2022-08-26T04:37:55.435Z,74.60
2022-08-26T04:40:24.586Z,74.52
2022-08-26T04:42:55.292Z,74.33
2022-08-26T04:45:23.468Z,74.08
2022-08-26T04:47:56.232Z,73.77
2022-08-26T04:50:25.687Z,73.62
2022-08-26T04:52:55.051Z,73.58
2022-08-26T04:55:25.340Z,73.28
2022-08-26T04:58:10.193Z,73.18
2022-08-26T05:00:39.585Z,73.38
2022-08-26T05:03:10.487Z,73.18
2022-08-26T05:05:40.886Z,72.80
2022-08-26T05:08:09.429Z,72.85
2022-08-26T05:10:43.726Z,72.93
2022-08-26T05:13:15.494Z,73.10
2022-08-26T05:15:45.038Z,72.60
2022-08-26T05:18:14.800Z,72.49
2022-08-26T05:20:44.693Z,72.54
2022-08-26T05:23:13.493Z,72.58
2022-08-26T05:25:45.110Z,72.48
2022-08-26T05:28:17.189Z,72.44
2022-08-26T05:30:45.666Z,72.18
2022-08-26T05:33:13.941Z,72.17
2022-08-26T05:35:42.661Z,72.11
2022-08-26T05:38:13.095Z,72.24
2022-08-26T05:40:42.836Z,71.73
2022-08-26T05:43:10.832Z,72.13
2022-08-26T05:45:45.907Z,71.92
2022-08-26T05:48:15.547Z,72.13
2022-08-26T05:50:46.638Z,71.73
2022-08-26T05:53:17.489Z,71.83
2022-08-26T05:55:47.210Z,71.87
2022-08-26T05:58:15.184Z,72.32
2022-08-26T06:00:48.853Z,72.71
2022-08-26T06:03:17.774Z,73.16
2022-08-26T06:05:45.662Z,73.26
2022-08-26T06:08:14.333Z,73.31
2022-08-26T06:10:50.158Z,73.19
2022-08-26T06:13:20.510Z,73.02
2022-08-26T06:15:52.041Z,72.54
2022-08-26T06:18:22.076Z,72.21
2022-08-26T06:20:58.018Z,72.02
2022-08-26T06:23:46.126Z,72.17
2022-08-26T06:26:15.569Z,71.96
2022-08-26T06:28:45.561Z,71.92
2022-08-26T06:31:15.837Z,71.50
2022-08-26T06:33:44.619Z,71.11
2022-08-26T06:36:17.263Z,71.43
2022-08-26T06:38:47.798Z,71.15
2022-08-26T06:41:16.020Z,71.06
2022-08-26T06:43:44.008Z,70.97
2022-08-26T06:46:14.468Z,71.20
2022-08-26T06:48:44.477Z,70.90
2022-08-26T06:51:15.556Z,71.14
2022-08-26T06:53:45.645Z,71.03
2022-08-26T06:56:15.547Z,70.67
2022-08-26T06:58:44.170Z,70.36
2022-08-26T07:01:20.937Z,69.97
2022-08-26T07:03:52.382Z,69.83
2022-08-26T07:06:22.437Z,69.75
2022-08-26T07:08:52.604Z,69.89
2022-08-26T07:11:21.281Z,70.22
2022-08-26T07:13:51.216Z,70.77
2022-08-26T07:16:20.176Z,70.69
2022-08-26T07:18:52.926Z,70.53
2022-08-26T07:21:22.036Z,70.41
2022-08-26T07:23:50.493Z,70.09
2022-08-26T07:26:25.369Z,69.86
2022-08-26T07:28:58.245Z,69.71
2022-08-26T07:31:30.953Z,69.26
2022-08-26T07:34:02.879Z,69.41
2022-08-26T07:36:32.464Z,69.16
2022-08-26T07:39:00.780Z,68.88
2022-08-26T07:43:57.933Z,68.97
2022-08-26T07:46:29.926Z,68.52
2022-08-26T07:48:58.712Z,68.58
2022-08-26T07:51:29.036Z,68.99
2022-08-26T07:53:57.111Z,68.96
2022-08-26T07:56:25.933Z,68.36
2022-08-26T07:58:54.689Z,68.55
2022-08-26T08:01:24.528Z,68.38
2022-08-26T08:03:55.178Z,68.15
2022-08-26T08:06:27.016Z,67.87
2022-08-26T08:08:57.069Z,67.51
2022-08-26T08:11:27.205Z,67.76
2022-08-26T08:13:56.550Z,67.71
2022-08-26T08:16:26.290Z,67.72
2022-08-26T08:18:54.467Z,67.71
2022-08-26T08:21:24.407Z,67.29
2022-08-26T08:23:53.091Z,67.19
2022-08-26T08:26:23.100Z,67.11
2022-08-26T08:28:51.997Z,66.65
2022-08-26T08:31:38.756Z,66.16
2022-08-26T08:34:09.423Z,65.70
2022-08-26T08:36:37.310Z,65.35
2022-08-26T08:39:06.443Z,64.94
2022-08-26T08:41:54.661Z,64.87
2022-08-26T08:47:02.844Z,64.69
2022-08-26T08:49:32.007Z,64.39
2022-08-26T08:52:04.190Z,63.80
2022-08-26T08:54:33.894Z,62.78
2022-08-26T08:57:13.174Z,62.79
2022-08-26T08:59:51.961Z,62.48
2022-08-26T09:02:28.256Z,61.73
2022-08-26T09:05:15.152Z,60.95
2022-08-26T09:07:47.223Z,60.42
2022-08-26T09:10:35.456Z,60.20
2022-08-26T09:13:08.293Z,59.93
2022-08-26T09:15:47.254Z,59.59
2022-08-26T09:18:26.846Z,59.12
2022-08-26T09:20:59.323Z,59.02
2022-08-26T09:23:27.791Z,58.69
2022-08-26T09:25:58.829Z,58.75
2022-08-26T09:28:29.708Z,58.67
2022-08-26T09:31:11.534Z,58.50
2022-08-26T09:33:41.164Z,58.79
2022-08-26T09:36:22.704Z,58.54
2022-08-26T09:38:54.500Z,58.02
2022-08-26T09:41:31.528Z,57.28
2022-08-26T09:44:19.058Z,57.49
2022-08-26T09:46:54.918Z,57.41
2022-08-26T09:49:35.526Z,57.97
2022-08-26T09:52:12.525Z,57.67
2022-08-26T09:54:41.608Z,57.10
2022-08-26T09:57:21.736Z,56.56
2022-08-26T09:59:51.012Z,56.40
2022-08-26T10:02:38.351Z,55.85
2022-08-26T10:05:16.221Z,55.49
2022-08-26T10:07:47.782Z,55.46
2022-08-26T10:10:23.517Z,55.12
2022-08-26T10:13:05.107Z,54.81
2022-08-26T10:15:48.735Z,55.03
2022-08-26T10:18:22.004Z,55.23
2022-08-26T10:20:58.345Z,55.94
2022-08-26T10:23:28.741Z,55.75
2022-08-26T10:26:04.265Z,55.19
2022-08-26T10:28:39.076Z,54.94
2022-08-26T10:31:20.002Z,54.91
2022-08-26T10:33:52.567Z,55.10
2022-08-26T10:37:10.562Z,54.88
2022-08-26T10:39:38.008Z,54.09
2022-08-26T10:42:09.746Z,54.13
2022-08-26T10:44:43.707Z,53.10
2022-08-26T10:47:19.502Z,52.44
2022-08-26T10:49:50.059Z,52.32
2022-08-26T10:52:22.165Z,51.91
2022-08-26T10:54:59.640Z,51.82
2022-08-26T10:57:43.380Z,51.23
2022-08-26T11:00:35.015Z,50.98
2022-08-26T11:03:22.033Z,51.07
2022-08-26T11:06:21.759Z,50.83
2022-08-26T11:08:52.696Z,51.58
2022-08-26T11:11:47.915Z,50.37
2022-08-26T11:14:45.985Z,50.00
2022-08-26T11:17:55.330Z,49.83
2022-08-26T11:20:37.209Z,50.02
2022-08-26T11:23:41.579Z,49.83
2022-08-26T11:26:35.490Z,49.89
2022-08-26T11:29:12.225Z,50.16
2022-08-26T11:31:56.229Z,50.35
2022-08-26T11:34:53.931Z,50.37
2022-08-26T11:37:27.280Z,50.03
2022-08-26T11:39:57.566Z,49.16
2022-08-26T11:42:33.174Z,49.54
2022-08-26T11:45:05.565Z,49.12
2022-08-26T11:47:33.987Z,48.88
2022-08-26T11:50:13.812Z,48.90
2022-08-26T11:52:51.996Z,48.95
2022-08-26T11:55:20.471Z,48.19
2022-08-26T11:57:54.288Z,47.61
2022-08-26T12:00:24.230Z,47.65
2022-08-26T12:02:53.424Z,47.31
2022-08-26T12:05:27.192Z,46.95
2022-08-26T12:08:04.912Z,46.28
2022-08-26T12:10:35.795Z,46.17
2022-08-26T12:13:06.218Z,45.60
2022-08-26T12:15:35.838Z,44.52
2022-08-26T12:18:20.710Z,43.00
2022-08-26T12:20:59.825Z,41.90
2022-08-26T12:23:42.156Z,41.57
2022-08-26T12:26:15.205Z,41.35
2022-08-26T12:28:46.846Z,40.71
2022-08-26T12:31:22.633Z,40.81
2022-08-26T12:33:51.353Z,40.42
2022-08-26T12:36:27.450Z,40.24
2022-08-26T12:38:58.740Z,39.97
2022-08-26T12:41:41.524Z,39.82
2022-08-26T12:44:09.813Z,39.68
2022-08-26T12:46:38.435Z,39.00
2022-08-26T12:49:06.423Z,38.82
2022-08-26T12:51:35.310Z,38.91
2022-08-26T12:54:06.757Z,38.33
2022-08-26T12:56:39.465Z,40.71
2022-08-26T12:59:20.117Z,41.72
2022-08-26T13:01:49.469Z,42.21
2022-08-26T13:04:35.868Z,43.15
2022-08-26T13:07:14.335Z,42.98
2022-08-26T13:09:43.617Z,43.11
2022-08-26T13:12:12.713Z,43.39
2022-08-26T13:14:40.881Z,44.12
2022-08-26T13:17:09.126Z,44.30
2022-08-26T13:19:37.257Z,44.19
2022-08-26T13:22:06.096Z,44.62
2022-08-26T13:24:36.751Z,44.45
2022-08-26T13:27:08.038Z,44.02
2022-08-26T13:29:36.667Z,44.15
2022-08-26T13:32:06.314Z,44.08
2022-08-26T13:34:36.288Z,44.28
2022-08-26T13:37:04.639Z,44.39
2022-08-26T13:39:32.897Z,43.44
2022-08-26T13:42:01.881Z,43.17
2022-08-26T13:44:31.182Z,42.77
2022-08-26T13:46:59.672Z,43.03
2022-08-26T13:49:27.686Z,43.07
2022-08-26T13:51:55.555Z,43.34
2022-08-26T13:54:23.917Z,43.88
2022-08-26T13:56:51.836Z,43.58
2022-08-26T13:59:19.810Z,44.16
2022-08-26T14:01:49.153Z,44.76
2022-08-26T14:04:17.164Z,44.30
2022-08-26T14:06:54.898Z,44.74
2022-08-26T14:09:23.092Z,44.61
2022-08-26T14:11:54.903Z,46.58
2022-08-26T14:14:23.447Z,49.21
2022-08-26T14:16:59.108Z,49.54
2022-08-26T14:19:44.692Z,49.48
2022-08-26T14:22:15.576Z,50.02
2022-08-26T14:24:46.512Z,49.96
2022-08-26T14:27:15.268Z,50.21
2022-08-26T14:29:43.609Z,50.66
2022-08-26T14:32:21.032Z,51.12
2022-08-26T14:34:50.887Z,51.29
2022-08-26T14:37:19.263Z,51.32
2022-08-26T14:39:47.783Z,50.78
2022-08-26T14:42:18.269Z,50.24
2022-08-26T14:44:49.580Z,50.06
2022-08-26T14:47:18.860Z,50.09
2022-08-26T14:49:46.845Z,49.93
2022-08-26T14:52:14.782Z,50.12
2022-08-26T14:54:41.894Z,49.90
2022-08-26T14:57:14.763Z,50.18
2022-08-26T14:59:49.757Z,50.24
2022-08-26T15:02:32.937Z,50.32
2022-08-26T15:05:02.084Z,50.24
2022-08-26T15:07:30.434Z,50.29
2022-08-26T15:09:58.418Z,49.92
2022-08-26T15:12:26.615Z,49.93
2022-08-26T15:14:54.671Z,50.67
2022-08-26T15:17:24.185Z,50.84
2022-08-26T15:19:54.414Z,51.52
2022-08-26T15:22:29.395Z,51.21
2022-08-26T15:24:58.864Z,51.53
2022-08-26T15:27:26.785Z,51.31
2022-08-26T15:29:54.735Z,50.81
2022-08-26T15:32:24.339Z,50.74
2022-08-26T15:34:53.007Z,50.66
2022-08-26T15:37:21.304Z,50.59
2022-08-26T15:39:49.320Z,50.38
2022-08-26T15:42:17.176Z,50.06
2022-08-26T15:44:45.564Z,49.52
2022-08-26T15:47:14.255Z,48.92
2022-08-26T15:49:43.500Z,48.67
2022-08-26T15:52:11.741Z,47.82
2022-08-26T15:54:39.656Z,47.47
2022-08-26T15:57:11.478Z,46.68
2022-08-26T15:59:40.499Z,45.87
2022-08-26T16:02:08.520Z,45.32
2022-08-26T16:04:36.463Z,44.95
2022-08-26T16:07:06.071Z,44.21
2022-08-26T16:09:34.108Z,44.28
2022-08-26T16:12:02.187Z,44.29
2022-08-26T16:14:30.266Z,44.24
2022-08-26T16:16:58.261Z,44.12
2022-08-26T16:19:26.107Z,44.14
2022-08-26T16:21:54.306Z,43.36
2022-08-26T16:24:28.389Z,43.36
2022-08-26T16:26:58.225Z,42.93
2022-08-26T16:29:26.159Z,43.15
2022-08-26T16:31:54.838Z,43.87
2022-08-26T16:34:23.246Z,44.09
2022-08-26T16:36:51.166Z,44.46
2022-08-26T16:39:19.701Z,44.91
2022-08-26T16:41:48.908Z,44.82
2022-08-26T16:44:16.863Z,45.05
2022-08-26T16:46:45.545Z,45.21
2022-08-26T16:49:13.488Z,45.99
2022-08-26T16:51:41.440Z,46.80
2022-08-26T16:54:09.476Z,47.13
2022-08-26T16:56:38.057Z,47.53
2022-08-26T16:59:10.445Z,48.74
2022-08-26T17:01:38.448Z,49.47
2022-08-26T17:04:06.352Z,49.83
2022-08-26T17:06:34.638Z,50.03
2022-08-26T17:09:04.403Z,50.88
2022-08-26T17:11:32.992Z,51.27
2022-08-26T17:14:01.257Z,51.28
2022-08-26T17:16:30.677Z,51.95
2022-08-26T17:18:59.915Z,52.05
2022-08-26T17:21:30.378Z,51.67
2022-08-26T17:23:58.437Z,51.86
2022-08-26T17:26:26.958Z,51.83
2022-08-26T17:28:55.357Z,51.73
2022-08-26T17:31:24.271Z,51.45
2022-08-26T17:33:54.824Z,51.27
2022-08-26T17:36:27.489Z,51.41
2022-08-26T17:38:56.844Z,51.57
2022-08-26T17:41:24.980Z,51.70
2022-08-26T17:43:53.012Z,52.03
2022-08-26T17:46:21.087Z,51.97
2022-08-26T17:48:52.451Z,52.00
2022-08-26T17:51:29.043Z,52.15
2022-08-26T17:54:01.677Z,52.48
2022-08-26T17:56:38.882Z,52.41
2022-08-26T17:59:06.852Z,52.80
2022-08-26T18:01:35.415Z,53.07
2022-08-26T18:04:03.935Z,53.42
2022-08-26T18:06:33.733Z,53.61
2022-08-26T18:09:02.743Z,53.36
2022-08-26T18:11:31.129Z,53.44
2022-08-26T18:13:59.853Z,53.38
2022-08-26T18:16:29.843Z,53.60
2022-08-26T18:18:58.372Z,53.90
2022-08-26T18:21:28.174Z,53.68
2022-08-26T18:23:57.604Z,53.78
2022-08-26T18:26:27.949Z,53.84
2022-08-26T18:28:56.515Z,53.46
2022-08-26T18:31:25.297Z,53.45
2022-08-26T18:33:53.348Z,53.09
2022-08-26T18:36:23.681Z,52.90
2022-08-26T18:38:52.733Z,52.87
2022-08-26T18:41:23.873Z,52.72
2022-08-26T18:43:53.488Z,52.99
2022-08-26T18:46:24.968Z,52.49
2022-08-26T18:48:53.474Z,52.58
2022-08-26T18:51:24.841Z,52.67
2022-08-26T18:53:53.135Z,53.46
2022-08-26T18:56:22.451Z,54.10
2022-08-26T18:58:50.570Z,54.07
2022-08-26T19:01:22.364Z,54.39
2022-08-26T19:03:52.274Z,54.59
2022-08-26T19:06:22.289Z,55.83
2022-08-26T19:08:50.709Z,56.24
2022-08-26T19:11:31.502Z,56.64
2022-08-26T19:14:02.565Z,56.50
2022-08-26T19:16:31.617Z,56.63
2022-08-26T19:19:00.984Z,56.27
2022-08-26T19:21:30.602Z,56.54
2022-08-26T19:23:59.486Z,56.56
2022-08-26T19:26:28.684Z,56.35
2022-08-26T19:28:57.235Z,56.35
2022-08-26T19:31:27.138Z,55.94
2022-08-26T19:33:56.604Z,56.00
2022-08-26T19:36:25.823Z,56.02
2022-08-26T19:38:54.350Z,55.80
2022-08-26T19:41:37.464Z,56.52
2022-08-26T19:44:09.482Z,56.04
2022-08-26T19:49:12.076Z,55.81
2022-08-26T19:51:39.990Z,55.99
2022-08-26T19:54:08.080Z,55.47
2022-08-26T19:56:36.475Z,55.83
2022-08-26T19:59:04.562Z,55.91
2022-08-26T20:01:32.654Z,55.83
2022-08-26T20:04:01.998Z,55.84
2022-08-26T20:06:29.927Z,56.11
2022-08-26T20:08:57.926Z,56.54
2022-08-26T20:11:26.645Z,56.51
2022-08-26T20:13:55.237Z,56.42
2022-08-26T20:16:23.329Z,57.02
2022-08-26T20:19:08.631Z,56.71
2022-08-26T20:21:40.251Z,56.84
2022-08-26T20:24:10.495Z,57.30
2022-08-26T20:26:40.855Z,57.85
2022-08-26T20:29:10.591Z,57.63
2022-08-26T20:31:39.041Z,58.11
2022-08-26T20:34:07.797Z,58.19
2022-08-26T20:36:39.548Z,58.05
2022-08-26T20:39:07.805Z,58.16
2022-08-26T20:41:35.737Z,58.00
2022-08-26T20:44:04.188Z,58.19
2022-08-26T20:46:32.102Z,58.06
2022-08-26T20:49:00.124Z,58.29
2022-08-26T20:51:29.425Z,58.52
2022-08-26T20:53:58.691Z,59.08
2022-08-26T20:56:26.607Z,59.42
2022-08-26T20:59:00.246Z,58.80
2022-08-26T21:01:34.338Z,58.69
2022-08-26T21:04:05.135Z,58.50
2022-08-26T21:06:34.694Z,58.18
2022-08-26T21:09:05.884Z,58.33
2022-08-26T21:11:34.652Z,58.00
2022-08-26T21:14:15.873Z,57.77
2022-08-26T21:16:46.892Z,58.45
2022-08-26T21:19:17.578Z,58.96
2022-08-26T21:21:45.919Z,58.95
2022-08-26T21:24:15.807Z,59.30
2022-08-26T21:26:44.232Z,59.63
2022-08-26T21:29:13.544Z,59.77
2022-08-26T21:31:46.213Z,59.82
2022-08-26T21:34:15.031Z,60.01
2022-08-26T21:36:42.985Z,60.67
2022-08-26T21:39:12.169Z,60.29
2022-08-26T21:41:43.024Z,60.66
2022-08-26T21:44:12.253Z,60.58
2022-08-26T21:46:40.519Z,60.52
2022-08-26T21:49:10.675Z,60.51
2022-08-26T21:51:40.844Z,60.36
2022-08-26T21:54:11.356Z,60.30
2022-08-26T21:56:44.238Z,60.37
2022-08-26T21:59:13.349Z,60.05
2022-08-26T22:01:41.345Z,59.79
2022-08-26T22:04:10.774Z,60.01
2022-08-26T22:06:43.370Z,60.11
2022-08-26T22:09:11.471Z,60.00
2022-08-26T22:11:41.099Z,60.18
2022-08-26T22:14:09.144Z,59.74
2022-08-26T22:16:37.330Z,59.73
2022-08-26T22:19:05.540Z,60.10
2022-08-26T22:21:35.682Z,60.02
2022-08-26T22:24:04.598Z,60.14
2022-08-26T22:26:34.561Z,60.40
2022-08-26T22:29:05.941Z,60.77
2022-08-26T22:31:36.997Z,61.20
2022-08-26T22:34:08.850Z,61.59
2022-08-26T22:36:42.980Z,61.49
2022-08-26T22:39:13.069Z,61.71
2022-08-26T22:41:41.218Z,61.86
2022-08-26T22:44:11.576Z,62.31
2022-08-26T22:46:39.854Z,62.24
2022-08-26T22:49:09.758Z,62.23
2022-08-26T22:51:37.859Z,62.25
2022-08-26T22:54:06.163Z,62.46
2022-08-26T22:56:34.113Z,62.82
2022-08-26T22:59:02.051Z,62.86
2022-08-26T23:01:31.400Z,62.92
2022-08-26T23:03:59.382Z,62.67
2022-08-26T23:06:27.502Z,62.72
2022-08-26T23:08:55.410Z,62.63
2022-08-26T23:11:23.341Z,62.72
2022-08-26T23:13:51.377Z,62.77
2022-08-26T23:16:19.276Z,62.86
2022-08-26T23:18:48.548Z,62.63
2022-08-26T23:21:16.449Z,62.02
2022-08-26T23:23:45.079Z,61.60
2022-08-26T23:26:17.555Z,61.28
2022-08-26T23:28:45.806Z,61.81
2022-08-26T23:31:14.320Z,62.45
2022-08-26T23:33:59.873Z,62.78
2022-08-26T23:36:29.739Z,62.62
2022-08-26T23:38:58.737Z,62.70
2022-08-26T23:41:27.512Z,62.71
2022-08-26T23:43:55.496Z,62.79
2022-08-26T23:46:23.650Z,62.69
2022-08-26T23:48:51.924Z,62.91
2022-08-26T23:51:37.233Z,63.19
2022-08-26T23:54:07.128Z,63.43
2022-08-26T23:56:36.144Z,63.53
2022-08-26T23:59:04.044Z,63.81
